Flight Number: EUR1336 Duration: 1:15
Departure: Stavanger (ENZV) at 14:00 Distance: 348 Nm
Arrival: Hamburg Fuhlsbuettel (EDDH) at 15:15 Equipment: B737

Weather Information
Stavanger / Sola, Norway (ENZV) 58-53N 005-38E 9M Jun 23, 2018 - 11:20 AM EDT / 2018.06.23 1520 UTC
Wind: from the NW (310 degrees) at 16 MPH (14 KT):0
Visibility: greater than 7 mile(s):0
Sky conditions: mostly cloudy Temperature: 53 F (12 C) Dew Point: 50 F (10 C) Relative Humidity: 87% Pressure (altimeter): 30.09 in. Hg (1019 hPa)
ob: ENZV 231520Z 31014KT 9999 BKN008 12/10 Q1019 TEMPO 2000 RADZ BR BKN004 cycle: 15
Sunrise: 02:33 Sunset: 20:46 (UTC)

Hamburg-Fuhlsbuettel, Germany (EDDH) 53-38N 010-00E 15M Jun 23, 2018 - 11:20 AM EDT / 2018.06.23 1520 UTC
Wind: from the WNW (300 degrees) at 20 MPH (17 KT):0
Visibility: greater than 7 mile(s):0
Sky conditions: mostly cloudy Weather: light drizzle Temperature: 55 F (13 C) Dew Point: 53 F (12 C) Relative Humidity: 93% Pressure (altimeter): 30.15 in. Hg (1021 hPa)
ob: EDDH 231520Z 30017KT 9999 -DZ FEW008 BKN010 13/12 Q1021 TEMPO 30015G25KT BKN015 cycle: 15
Sunrise: 02:55 Sunset: 19:48 (UTC)

TAF:2018/06/23 12:58 TAF AMD EDDH 231243Z 2312/2418 29015KT 9999 SCT025 TEMPO 2312/2317 31020G30KT BKN012 BECMG 2317/2319 28008KT BKN012 TEMPO 2321/2408 4000 -DZ BKN008 BECMG 2409/2412 BKN015

Previous Pireps for this route
Date Aircraft Flight time Fuel used Landing rate On time
2013-08-04B73701.177700-784No
2014-01-02B73701.188671-405Yes
2014-08-05B73701.267629-231No
2015-04-18B73701.217598-50No
2016-03-20B73701.156417-845Yes
2016-06-24B73701.247485-568No
(pireps marked green are flown by you)

Route map